Time;durP1;ratioP1;P1;durP2;ratioP2;P2;SDS_P1;SDS_P2;PMS_P1;PMS_P2;Temp;Humidity;BMP_temperature;BMP_pressure;BME280_temperature;BME280_humidity;BME280_pressure;Samples;Min_cycle;Max_cycle;Signal;HPM_P1;HPM_P2
2021/04/28 00:02:05;;;;;;;1.80;1.20;;;;;;;4.24;58.04;99784.13;5070635;28;20202;-70
2021/04/28 00:04:30;;;;;;;0.83;0.83;;;;;;;4.21;58.13;99787.41;5070782;28;20527;-71
2021/04/28 00:06:56;;;;;;;1.30;1.00;;;;;;;4.25;58.01;99781.16;5070792;28;20212;-71
2021/04/28 00:09:21;;;;;;;0.90;0.90;;;;;;;4.11;57.85;99774.78;5070887;28;20166;-71
2021/04/28 00:11:47;;;;;;;1.13;0.93;;;;;;;4.02;58.47;99776.50;5070781;28;20650;-71
2021/04/28 00:14:13;;;;;;;1.53;1.20;;;;;;;4.20;58.15;99775.81;5070652;28;20228;-71
2021/04/28 00:16:38;;;;;;;1.33;1.00;;;;;;;4.17;57.74;99771.75;5070781;28;20170;-73
2021/04/28 00:19:04;;;;;;;1.50;1.40;;;;;;;4.18;57.99;99769.84;5070666;28;20170;-71
2021/04/28 00:21:30;;;;;;;1.03;1.00;;;;;;;4.16;58.04;99764.72;5069288;28;20221;-71
2021/04/28 00:23:56;;;;;;;0.80;0.77;;;;;;;4.00;58.54;99765.97;5070616;28;20253;-71
2021/04/28 00:26:22;;;;;;;1.40;1.30;;;;;;;4.12;58.17;99755.59;5070560;28;20215;-71
2021/04/28 00:28:47;;;;;;;1.27;0.67;;;;;;;4.12;58.32;99763.69;5070600;28;20213;-70
2021/04/28 00:31:13;;;;;;;1.77;1.17;;;;;;;4.15;58.19;99762.31;5073191;28;20219;-71
2021/04/28 00:33:39;;;;;;;1.70;1.60;;;;;;;4.23;58.79;99760.91;5074568;28;20178;-71
2021/04/28 00:36:05;;;;;;;3.67;1.77;;;;;;;4.26;58.01;99760.31;5074664;28;20177;-71
2021/04/28 00:38:31;;;;;;;1.47;1.37;;;;;;;4.24;58.22;99755.22;5074559;28;20253;-71
2021/04/28 00:40:57;;;;;;;1.10;1.00;;;;;;;4.36;58.35;99762.94;5074487;28;20327;-72
2021/04/28 00:43:22;;;;;;;1.10;1.00;;;;;;;4.22;57.97;99753.88;5074558;28;20174;-71
2021/04/28 00:45:49;;;;;;;2.27;1.30;;;;;;;4.33;58.16;99755.38;5074464;28;20175;-71
2021/04/28 00:48:14;;;;;;;2.13;1.47;;;;;;;4.34;57.50;99749.69;5074321;28;20182;-71
2021/04/28 00:50:46;;;;;;;1.40;1.40;;;;;;;4.05;57.76;99747.03;5074478;28;20430;-71
2021/04/28 00:53:15;;;;;;;1.50;1.40;;;;;;;4.13;58.75;99746.38;5074545;28;20265;-71
2021/04/28 00:55:41;;;;;;;1.20;1.10;;;;;;;4.23;59.14;99744.69;5074223;28;20190;-71
2021/04/28 00:58:06;;;;;;;1.60;1.10;;;;;;;4.30;59.07;99737.03;5074312;28;20171;-71
2021/04/28 01:00:33;;;;;;;1.40;1.30;;;;;;;4.30;58.89;99743.22;5074234;28;20197;-71
2021/04/28 01:02:58;;;;;;;1.60;1.50;;;;;;;4.00;59.68;99738.94;5073963;28;20262;-71
2021/04/28 01:05:27;;;;;;;1.50;1.40;;;;;;;4.18;59.43;99738.22;5074144;28;20258;-71
2021/04/28 01:07:53;;;;;;;1.23;1.13;;;;;;;4.29;59.67;99735.41;5074176;28;20181;-71
2021/04/28 01:10:25;;;;;;;0.93;0.90;;;;;;;4.29;59.82;99732.72;5074084;28;20258;-71
2021/04/28 01:12:51;;;;;;;1.13;1.03;;;;;;;4.32;59.49;99730.22;5073998;28;20162;-70
2021/04/28 01:15:20;;;;;;;1.93;1.43;;;;;;;4.16;59.75;99732.28;5072451;28;20178;-71
2021/04/28 01:17:46;;;;;;;2.00;1.53;;;;;;;4.23;59.97;99729.25;5073794;28;20167;-71
2021/04/28 01:20:15;;;;;;;1.23;1.13;;;;;;;4.21;59.84;99731.44;5073829;28;20224;-70
2021/04/28 01:22:42;;;;;;;0.83;0.77;;;;;;;4.20;59.97;99720.94;5073711;28;20170;-71
2021/04/28 01:25:10;;;;;;;1.67;1.13;;;;;;;4.10;60.75;99725.34;5072443;28;20183;-72
2021/04/28 01:27:39;;;;;;;1.57;1.40;;;;;;;4.07;60.64;99723.22;5073733;28;20170;-71
2021/04/28 01:30:06;;;;;;;1.23;1.13;;;;;;;3.99;60.77;99723.81;5073737;28;20167;-70
2021/04/28 01:32:33;;;;;;;2.70;1.30;;;;;;;3.89;60.73;99726.63;5073539;28;20163;-71
2021/04/28 01:35:00;;;;;;;1.30;1.20;;;;;;;3.77;60.87;99724.31;5073631;28;20634;-71
2021/04/28 01:37:26;;;;;;;1.23;1.13;;;;;;;3.66;61.55;99720.09;5072310;28;20174;-71
2021/04/28 01:39:52;;;;;;;0.70;0.70;;;;;;;3.76;61.72;99716.47;5073613;28;20182;-71
2021/04/28 01:42:18;;;;;;;2.57;1.70;;;;;;;3.74;61.63;99715.94;5073263;28;20646;-72
2021/04/28 01:44:47;;;;;;;1.37;1.00;;;;;;;3.64;61.81;99726.88;5073488;28;20534;-75
2021/04/28 01:47:14;;;;;;;1.47;1.10;;;;;;;3.14;63.07;99731.53;5073214;28;20224;-75
2021/04/28 01:53:02;;;;;;;3.00;1.80;;;;;;;3.47;62.77;99714.59;5073998;28;20185;-73
2021/04/28 01:55:40;;;;;;;1.63;1.50;;;;;;;3.18;62.77;99721.78;5074999;28;20166;-76
2021/04/28 01:58:14;;;;;;;2.33;1.67;;;;;;;3.42;62.67;99713.78;5073502;28;20166;-71
2021/04/28 02:00:40;;;;;;;1.40;1.30;;;;;;;3.53;62.40;99710.72;5073325;28;20190;-72
2021/04/28 02:03:06;;;;;;;1.40;1.30;;;;;;;3.40;62.63;99711.38;5073294;28;20166;-73
2021/04/28 02:05:31;;;;;;;1.70;1.60;;;;;;;3.36;63.40;99706.84;5073040;28;20195;-73
2021/04/28 02:07:57;;;;;;;1.93;1.33;;;;;;;3.51;62.73;99698.63;5073051;28;20173;-74
2021/04/28 02:10:22;;;;;;;2.40;1.50;;;;;;;3.56;62.57;99699.38;5072994;28;20171;-73
2021/04/28 02:12:49;;;;;;;1.80;1.70;;;;;;;3.59;62.46;99703.38;5072800;28;20560;-75
2021/04/28 02:15:15;;;;;;;1.73;1.30;;;;;;;3.64;62.08;99691.75;5072776;28;20175;-75
2021/04/28 02:17:42;;;;;;;1.43;1.33;;;;;;;3.66;62.35;99686.88;5072989;28;20170;-75
2021/04/28 02:20:13;;;;;;;3.00;1.90;;;;;;;3.68;62.31;99679.28;5072791;28;20182;-75
2021/04/28 02:22:40;;;;;;;1.87;1.67;;;;;;;3.67;62.04;99688.47;5072448;28;20690;-75
2021/04/28 02:25:06;;;;;;;1.10;1.00;;;;;;;3.31;62.45;99686.06;5072624;28;20657;-76
2021/04/28 02:27:32;;;;;;;2.17;1.57;;;;;;;3.10;63.05;99685.41;5071177;28;20179;-73
2021/04/28 02:29:57;;;;;;;1.53;1.43;;;;;;;3.13;63.57;99684.03;5072781;28;20654;-76
2021/04/28 02:32:22;;;;;;;1.50;1.20;;;;;;;3.35;62.90;99680.94;5071062;28;20261;-73
2021/04/28 02:34:48;;;;;;;1.73;1.50;;;;;;;3.42;62.74;99679.50;5072410;28;20186;-74
2021/04/28 02:37:18;;;;;;;4.60;1.20;;;;;;;3.32;62.93;99673.38;5072287;28;20178;-72
2021/04/28 02:39:48;;;;;;;1.63;1.37;;;;;;;3.39;63.03;99673.88;5072414;28;20182;-75
2021/04/28 02:42:13;;;;;;;2.07;1.23;;;;;;;3.19;63.66;99664.06;5072038;28;20198;-75
2021/04/28 02:44:39;;;;;;;1.00;1.00;;;;;;;2.93;63.96;99669.63;5072173;28;20182;-75
2021/04/28 02:47:07;;;;;;;1.40;1.30;;;;;;;2.91;64.07;99666.41;5072098;28;20221;-74
2021/04/28 02:49:33;;;;;;;1.30;1.20;;;;;;;2.83;64.34;99668.88;5072425;28;20524;-75
2021/04/28 02:52:01;;;;;;;3.67;1.90;;;;;;;2.59;64.72;99666.03;5071956;28;20181;-77
2021/04/28 02:54:27;;;;;;;2.23;1.63;;;;;;;2.75;64.75;99666.75;5071541;28;20206;-76
2021/04/28 02:56:53;;;;;;;1.13;1.03;;;;;;;2.83;64.21;99669.66;5071944;28;20597;-75
2021/04/28 02:59:20;;;;;;;3.53;1.50;;;;;;;2.62;65.02;99663.59;5072007;28;20185;-75
2021/04/28 03:01:47;;;;;;;2.47;1.53;;;;;;;2.68;64.88;99662.47;5071736;28;20206;-73
2021/04/28 03:04:14;;;;;;;2.20;2.10;;;;;;;2.57;64.63;99662.81;5071752;28;20515;-76
2021/04/28 03:06:40;;;;;;;1.63;1.50;;;;;;;2.44;65.15;99661.53;5071568;28;20265;-74
2021/04/28 03:09:06;;;;;;;1.20;1.10;;;;;;;2.35;65.58;99664.00;5071689;28;20197;-74
2021/04/28 03:11:33;;;;;;;6.27;1.27;;;;;;;2.27;65.92;99659.16;5071659;28;20175;-75
2021/04/28 03:13:58;;;;;;;1.83;1.37;;;;;;;2.61;65.66;99671.97;5071561;28;20206;-75
2021/04/28 03:16:24;;;;;;;1.97;1.40;;;;;;;2.84;64.78;99665.09;5070255;28;20225;-74
2021/04/28 03:18:50;;;;;;;3.53;1.70;;;;;;;2.77;64.52;99664.59;5071496;28;20175;-75
2021/04/28 03:21:18;;;;;;;1.37;1.27;;;;;;;2.90;64.87;99659.41;5071386;28;20612;-74
2021/04/28 03:23:43;;;;;;;0.80;0.80;;;;;;;2.96;64.75;99658.25;5070148;28;20184;-75
2021/04/28 03:26:12;;;;;;;2.10;1.60;;;;;;;2.73;65.68;99663.53;5071328;28;20532;-74
2021/04/28 03:28:38;;;;;;;5.03;1.53;;;;;;;2.87;64.96;99657.22;5071320;28;20695;-74
2021/04/28 03:31:04;;;;;;;1.63;1.40;;;;;;;2.95;65.10;99656.66;5071270;28;20202;-75
2021/04/28 03:33:29;;;;;;;2.50;2.07;;;;;;;2.99;64.89;99656.88;5071454;28;20207;-74
2021/04/28 03:35:55;;;;;;;2.07;1.13;;;;;;;2.92;65.39;99657.22;5069878;28;20555;-73
2021/04/28 03:38:20;;;;;;;3.27;1.50;;;;;;;2.93;65.27;99653.44;5071292;28;20730;-75
2021/04/28 03:40:45;;;;;;;2.67;1.30;;;;;;;2.79;65.18;99657.03;5071063;28;20202;-76
2021/04/28 03:43:11;;;;;;;1.83;1.60;;;;;;;2.41;66.01;99656.69;5071077;28;20177;-75
2021/04/28 03:45:37;;;;;;;1.47;1.37;;;;;;;2.23;66.57;99660.81;5071036;28;20170;-75
2021/04/28 03:48:03;;;;;;;1.30;1.20;;;;;;;2.46;66.58;99654.00;5071124;28;20182;-75
2021/04/28 03:50:28;;;;;;;1.10;1.10;;;;;;;2.63;66.02;99659.03;5070971;28;20249;-74
2021/04/28 03:52:54;;;;;;;2.63;1.47;;;;;;;2.48;65.80;99661.78;5070899;28;20249;-76
2021/04/28 03:55:19;;;;;;;2.33;1.60;;;;;;;2.33;66.32;99657.28;5070994;28;20207;-75
2021/04/28 03:57:44;;;;;;;1.20;1.10;;;;;;;2.49;66.06;99661.50;5070973;28;20169;-75
2021/04/28 04:00:11;;;;;;;3.17;1.80;;;;;;;2.58;65.69;99662.53;5070862;28;20174;-75
2021/04/28 04:02:36;;;;;;;2.07;1.43;;;;;;;2.55;65.90;99662.28;5070549;28;20202;-74
2021/04/28 04:05:01;;;;;;;1.63;1.40;;;;;;;2.67;65.80;99660.88;5069978;28;20532;-75
2021/04/28 04:07:27;;;;;;;1.37;1.17;;;;;;;2.58;65.82;99664.41;5070880;28;20206;-75
2021/04/28 04:09:53;;;;;;;3.23;1.60;;;;;;;2.68;65.56;99672.47;5070729;28;20210;-75
2021/04/28 04:12:19;;;;;;;1.37;1.27;;;;;;;2.53;66.07;99667.16;5071012;28;20521;-74
2021/04/28 04:14:44;;;;;;;2.67;1.70;;;;;;;2.63;66.15;99664.41;5071044;28;20526;-75
2021/04/28 04:17:09;;;;;;;2.00;1.40;;;;;;;2.66;65.99;99666.53;5070541;28;20246;-75
2021/04/28 04:19:35;;;;;;;1.73;1.63;;;;;;;2.67;65.82;99668.16;5070710;28;20166;-75
2021/04/28 04:22:00;;;;;;;1.53;1.43;;;;;;;2.69;65.84;99664.09;5070508;28;20217;-75
2021/04/28 04:24:26;;;;;;;1.83;1.20;;;;;;;2.59;66.02;99661.44;5070665;28;20257;-74
2021/04/28 04:26:51;;;;;;;1.90;1.30;;;;;;;2.72;65.67;99662.72;5070707;28;20249;-75
2021/04/28 04:29:17;;;;;;;2.60;1.97;;;;;;;2.75;65.35;99664.06;5070653;28;20551;-75
2021/04/28 04:31:42;;;;;;;1.97;1.40;;;;;;;2.87;65.13;99657.22;5070430;28;20208;-75
2021/04/28 04:34:08;;;;;;;1.23;1.13;;;;;;;2.92;65.59;99656.41;5070589;28;20224;-74
2021/04/28 04:36:33;;;;;;;1.60;1.50;;;;;;;2.75;65.42;99659.50;5070389;28;20654;-75
2021/04/28 04:38:58;;;;;;;1.57;1.37;;;;;;;2.82;65.56;99664.56;5070666;28;20186;-75
2021/04/28 04:41:24;;;;;;;1.90;1.23;;;;;;;2.74;66.11;99667.84;5070500;28;20206;-74
2021/04/28 04:43:49;;;;;;;2.00;1.17;;;;;;;2.78;65.92;99669.72;5070399;28;20506;-75
2021/04/28 04:46:15;;;;;;;2.03;1.60;;;;;;;2.72;65.91;99672.69;5069077;28;20224;-75
2021/04/28 04:48:40;;;;;;;1.33;1.07;;;;;;;2.70;66.07;99659.50;5065238;28;20187;-73
2021/04/28 04:51:06;;;;;;;2.20;1.80;;;;;;;2.84;65.76;99665.88;5070107;28;20190;-74
2021/04/28 04:53:31;;;;;;;2.27;2.07;;;;;;;2.93;65.95;99658.81;5070229;28;20182;-75
2021/04/28 04:55:57;;;;;;;2.53;2.20;;;;;;;2.97;65.85;99659.06;5064811;28;20637;-75
2021/04/28 04:58:22;;;;;;;1.63;1.53;;;;;;;2.91;65.71;99663.69;5070434;28;20229;-70
2021/04/28 05:00:48;;;;;;;1.60;1.50;;;;;;;2.82;65.61;99673.47;5071485;28;20198;-71
2021/04/28 05:03:13;;;;;;;2.23;2.03;;;;;;;2.84;65.95;99665.09;5072518;28;20198;-71
2021/04/28 05:05:38;;;;;;;1.47;1.37;;;;;;;2.98;65.95;99661.47;5069639;28;20182;-69
2021/04/28 05:08:04;;;;;;;2.07;1.70;;;;;;;2.96;65.66;99660.97;5070231;28;20202;-70
2021/04/28 05:10:30;;;;;;;2.23;1.67;;;;;;;2.93;65.42;99658.81;5070307;28;20565;-71
2021/04/28 05:12:55;;;;;;;2.10;1.30;;;;;;;2.92;65.49;99654.53;5070085;28;20170;-70
2021/04/28 05:15:20;;;;;;;1.70;1.60;;;;;;;3.08;65.39;99659.81;5070193;28;20179;-71
2021/04/28 05:17:46;;;;;;;1.10;1.10;;;;;;;3.18;65.08;99657.84;5073481;28;20618;-70
2021/04/28 05:20:13;;;;;;;1.50;1.13;;;;;;;3.22;65.22;99652.69;5073908;28;20171;-70
2021/04/28 05:22:38;;;;;;;2.20;1.53;;;;;;;3.26;64.73;99642.94;5073553;28;20206;-70
2021/04/28 05:25:05;;;;;;;1.23;1.13;;;;;;;3.27;64.82;99653.44;5074111;28;20189;-70
2021/04/28 05:27:31;;;;;;;1.90;1.80;;;;;;;3.27;64.99;99650.75;5073530;28;20190;-71
2021/04/28 05:29:56;;;;;;;3.80;1.50;;;;;;;3.35;65.19;99652.03;5074008;28;20179;-71
2021/04/28 05:32:21;;;;;;;2.40;2.20;;;;;;;3.45;65.04;99651.94;5073621;28;20182;-71
2021/04/28 05:34:47;;;;;;;2.67;2.20;;;;;;;3.51;64.38;99655.41;5073574;28;20561;-71
2021/04/28 05:37:17;;;;;;;2.03;1.40;;;;;;;3.66;64.80;99652.56;5073584;28;20182;-70
2021/04/28 05:39:43;;;;;;;1.70;1.23;;;;;;;3.70;63.08;99655.50;5073504;28;20648;-71
2021/04/28 05:42:08;;;;;;;1.60;1.50;;;;;;;3.71;63.40;99662.50;5073102;28;20195;-71
2021/04/28 05:44:33;;;;;;;1.47;1.37;;;;;;;3.73;63.35;99663.03;5073403;28;20179;-70
2021/04/28 05:46:59;;;;;;;2.30;2.10;;;;;;;3.82;63.92;99653.22;5073365;28;20185;-70
2021/04/28 05:49:24;;;;;;;1.60;1.40;;;;;;;3.96;63.69;99646.03;5073368;28;20183;-70
2021/04/28 05:51:50;;;;;;;1.90;1.40;;;;;;;4.00;63.48;99655.16;5073186;28;20182;-70
2021/04/28 05:54:15;;;;;;;2.30;2.10;;;;;;;4.14;63.26;99653.38;5072967;28;20264;-71
2021/04/28 05:56:42;;;;;;;1.47;1.17;;;;;;;4.28;62.86;99660.81;5073196;28;20189;-70
2021/04/28 05:59:07;;;;;;;2.67;2.00;;;;;;;4.30;62.30;99647.78;5073290;28;20227;-70
2021/04/28 06:01:33;;;;;;;1.63;1.53;;;;;;;4.37;62.34;99646.38;5073245;28;20195;-71
2021/04/28 06:03:59;;;;;;;2.03;1.83;;;;;;;4.48;62.42;99647.84;5072978;28;20178;-70
2021/04/28 06:06:25;;;;;;;2.07;1.97;;;;;;;4.64;61.65;99634.91;5071601;28;20182;-71
2021/04/28 06:08:51;;;;;;;2.13;1.93;;;;;;;4.70;61.89;99647.25;5072769;28;20183;-70
2021/04/28 06:11:17;;;;;;;1.77;1.67;;;;;;;4.89;61.95;99635.63;5072872;28;20180;-71
2021/04/28 06:13:44;;;;;;;2.03;1.83;;;;;;;5.00;61.32;99637.09;5072764;28;20171;-71
2021/04/28 06:16:13;;;;;;;4.23;1.87;;;;;;;5.11;60.75;99643.16;5072736;28;20167;-70
2021/04/28 06:18:38;;;;;;;1.93;1.60;;;;;;;5.20;60.66;99633.25;5072817;28;20167;-70
2021/04/28 06:21:05;;;;;;;2.33;2.10;;;;;;;5.30;60.96;99635.78;5072622;28;20528;-71
2021/04/28 06:23:33;;;;;;;2.13;1.90;;;;;;;5.47;59.75;99633.34;5072437;28;20212;-70
2021/04/28 06:25:58;;;;;;;1.57;1.47;;;;;;;5.48;58.89;99634.13;5071186;28;20185;-71
2021/04/28 06:28:23;;;;;;;1.63;1.40;;;;;;;5.40;58.18;99630.22;5071874;28;20178;-71
2021/04/28 06:30:48;;;;;;;3.17;1.40;;;;;;;5.43;58.26;99632.31;5072476;28;20569;-70
2021/04/28 06:33:14;;;;;;;7.10;1.77;;;;;;;5.65;59.22;99634.41;5072436;28;20171;-70
2021/04/28 06:35:39;;;;;;;1.60;1.30;;;;;;;5.69;57.20;99621.84;5072423;28;20177;-71
2021/04/28 06:38:04;;;;;;;2.33;1.73;;;;;;;5.73;58.01;99625.56;5072274;28;20209;-71
2021/04/28 06:40:30;;;;;;;1.80;1.57;;;;;;;5.58;58.20;99625.84;5072203;28;20772;-71
2021/04/28 06:42:55;;;;;;;1.90;1.80;;;;;;;5.76;57.78;99627.66;5067689;28;20208;-71
2021/04/28 06:45:21;;;;;;;1.47;1.27;;;;;;;5.85;58.67;99631.31;5072254;28;20187;-70
2021/04/28 06:47:46;;;;;;;1.50;1.40;;;;;;;5.96;58.22;99638.19;5071956;28;20178;-70
2021/04/28 06:50:12;;;;;;;1.80;1.70;;;;;;;6.14;57.70;99636.47;5071677;28;20178;-70
2021/04/28 06:52:42;;;;;;;1.70;1.60;;;;;;;6.20;57.48;99629.00;5071789;28;20262;-73
2021/04/28 06:55:09;;;;;;;2.17;1.97;;;;;;;6.35;55.90;99628.69;5070897;28;20185;-76
2021/04/28 06:57:34;;;;;;;2.03;1.83;;;;;;;6.34;54.41;99626.28;5071492;28;20179;-70
2021/04/28 06:59:59;;;;;;;1.93;1.63;;;;;;;6.52;55.66;99625.38;5071885;28;20175;-70
2021/04/28 07:02:24;;;;;;;7.87;2.37;;;;;;;6.62;54.80;99625.16;5071650;28;20198;-70
2021/04/28 07:04:50;;;;;;;2.63;1.93;;;;;;;6.83;54.97;99628.22;5071807;28;20528;-70
2021/04/28 07:07:15;;;;;;;2.57;1.50;;;;;;;6.76;54.18;99620.47;5071762;28;20171;-71
2021/04/28 07:09:40;;;;;;;1.80;1.70;;;;;;;6.56;54.71;99621.75;5071415;28;20261;-70
2021/04/28 07:12:06;;;;;;;2.40;2.20;;;;;;;6.67;55.19;99626.97;5071277;28;20608;-70
2021/04/28 07:14:32;;;;;;;5.13;1.90;;;;;;;6.84;55.78;99621.69;5071067;28;20178;-70
2021/04/28 07:16:57;;;;;;;2.03;1.93;;;;;;;6.95;55.25;99628.50;5071083;28;20167;-70
2021/04/28 07:19:23;;;;;;;2.10;1.90;;;;;;;6.88;55.92;99628.09;5071054;28;20170;-70
2021/04/28 07:21:48;;;;;;;2.00;1.90;;;;;;;6.99;55.63;99624.03;5071128;28;20233;-70
2021/04/28 07:24:13;;;;;;;2.37;1.90;;;;;;;7.00;56.09;99617.50;5070921;28;20163;-72
2021/04/28 07:26:39;;;;;;;1.53;1.43;;;;;;;7.25;55.78;99613.38;5070964;28;20432;-71
2021/04/28 07:29:04;;;;;;;2.40;2.20;;;;;;;7.14;55.84;99609.28;5070955;28;20228;-70
2021/04/28 07:31:30;;;;;;;2.37;2.17;;;;;;;7.40;56.33;99614.91;5070842;28;20680;-71
2021/04/28 07:33:56;;;;;;;2.00;1.90;;;;;;;7.56;54.19;99612.59;5070636;28;20170;-70
2021/04/28 07:36:22;;;;;;;1.77;1.67;;;;;;;7.73;54.65;99613.47;5070859;28;20168;-70
2021/04/28 07:38:47;;;;;;;2.73;1.70;;;;;;;7.91;54.09;99610.81;5070494;28;20756;-70
2021/04/28 07:41:13;;;;;;;2.33;2.13;;;;;;;7.91;54.48;99610.81;5070752;28;20194;-71
2021/04/28 07:43:38;;;;;;;1.80;1.70;;;;;;;7.94;53.27;99612.91;5070553;28;20170;-71
2021/04/28 07:46:04;;;;;;;2.17;1.97;;;;;;;8.01;53.68;99605.91;5070604;28;20529;-71
2021/04/28 07:48:29;;;;;;;1.87;1.77;;;;;;;8.01;52.86;99608.63;5066068;28;20309;-72
2021/04/28 07:50:56;;;;;;;2.30;2.10;;;;;;;7.88;53.97;99604.09;5068942;28;20178;-70
2021/04/28 07:53:22;;;;;;;2.37;1.70;;;;;;;8.01;52.86;99602.41;5070799;28;20186;-71
2021/04/28 07:55:47;;;;;;;2.83;2.00;;;;;;;8.31;52.84;99612.41;5070671;28;20618;-71
2021/04/28 07:58:14;;;;;;;1.73;1.60;;;;;;;8.39;51.82;99605.41;5070414;28;20202;-71
2021/04/28 08:00:40;;;;;;;2.37;2.20;;;;;;;8.51;51.36;99602.06;5070616;28;20246;-71
2021/04/28 08:03:06;;;;;;;1.73;1.63;;;;;;;8.65;51.12;99600.00;5068813;28;20186;-70
2021/04/28 08:05:32;;;;;;;2.33;2.13;;;;;;;8.51;52.26;99602.06;5070541;28;20174;-72
2021/04/28 08:07:58;;;;;;;1.87;1.77;;;;;;;8.70;51.13;99594.41;5066130;28;20635;-69
2021/04/28 08:10:23;;;;;;;2.13;1.93;;;;;;;8.81;50.46;99600.31;5061989;28;20202;-70
2021/04/28 08:12:48;;;;;;;2.10;1.90;;;;;;;8.85;50.59;99602.09;5066939;28;20182;-71
2021/04/28 08:15:14;;;;;;;2.73;2.53;;;;;;;9.11;51.54;99599.38;5069153;28;20404;-69
2021/04/28 08:17:40;;;;;;;1.70;1.60;;;;;;;9.17;50.06;99595.34;5070224;28;20182;-70
2021/04/28 08:20:06;;;;;;;1.50;1.40;;;;;;;9.21;50.44;99592.75;5070282;28;20209;-70
2021/04/28 08:22:33;;;;;;;2.13;1.93;;;;;;;9.32;50.14;99593.22;5069884;28;20531;-70
2021/04/28 08:24:59;;;;;;;2.50;2.03;;;;;;;9.57;49.58;99584.19;5070260;28;20615;-70
2021/04/28 08:27:24;;;;;;;1.80;1.70;;;;;;;9.71;49.24;99590.25;5070121;28;20206;-70
2021/04/28 08:29:50;;;;;;;2.63;2.43;;;;;;;9.86;50.21;99596.28;5070193;28;20216;-69
2021/04/28 08:32:17;;;;;;;3.83;1.60;;;;;;;9.95;49.55;99588.84;5070301;28;20626;-69
2021/04/28 08:34:43;;;;;;;2.27;2.07;;;;;;;9.90;49.00;99592.56;5070077;28;20174;-70
2021/04/28 08:37:08;;;;;;;2.87;2.30;;;;;;;10.00;50.08;99586.75;5070462;28;20174;-69
2021/04/28 08:39:34;;;;;;;2.37;2.17;;;;;;;9.96;48.12;99591.25;5070026;28;20249;-70
2021/04/28 08:41:59;;;;;;;2.27;1.90;;;;;;;10.01;47.94;99579.38;5069808;28;20202;-70
2021/04/28 08:44:25;;;;;;;2.60;2.40;;;;;;;10.16;49.44;99583.47;5069923;28;20171;-70
2021/04/28 08:46:51;;;;;;;1.60;1.50;;;;;;;10.44;50.05;99581.88;5070006;28;20206;-69
2021/04/28 08:49:16;;;;;;;3.03;2.80;;;;;;;10.68;48.52;99573.00;5070387;28;20198;-69
2021/04/28 08:51:43;;;;;;;2.10;1.97;;;;;;;10.30;47.66;99576.66;5071399;28;20418;-69
2021/04/28 08:54:09;;;;;;;2.60;2.40;;;;;;;10.50;48.01;99572.34;5073680;28;20231;-69
2021/04/28 08:56:34;;;;;;;2.80;2.60;;;;;;;10.57;46.75;99574.56;5073979;28;20182;-70
2021/04/28 08:59:05;;;;;;;2.83;2.63;;;;;;;10.74;47.33;99568.97;5073913;28;20268;-69
2021/04/28 09:01:32;;;;;;;2.27;2.07;;;;;;;11.02;48.77;99582.88;5073739;28;20472;-69
2021/04/28 09:03:59;;;;;;;3.47;3.17;;;;;;;11.03;47.69;99579.81;5073521;28;20196;-69
2021/04/28 09:06:32;;;;;;;3.77;3.30;;;;;;;11.25;47.06;99575.88;5073552;28;20182;-69
2021/04/28 09:09:07;;;;;;;2.73;2.53;;;;;;;11.22;45.08;99571.09;5073739;28;20548;-70
2021/04/28 09:11:35;;;;;;;2.37;2.17;;;;;;;11.15;45.74;99581.78;5073592;28;20182;-70
2021/04/28 09:14:05;;;;;;;2.67;2.47;;;;;;;10.94;45.39;99575.53;5073457;28;20181;-69
2021/04/28 09:16:31;;;;;;;3.83;3.53;;;;;;;11.22;45.80;99571.09;5073860;28;20185;-70
2021/04/28 09:18:56;;;;;;;3.73;3.33;;;;;;;10.94;45.58;99573.59;5073493;28;20174;-70
2021/04/28 09:22:07;;;;;;;3.33;3.13;;;;;;;11.25;45.37;99566.88;5073424;28;20237;-70
2021/04/28 09:24:52;;;;;;;4.67;2.67;;;;;;;11.46;46.14;99573.09;5070585;28;20187;-70
2021/04/28 09:27:34;;;;;;;3.33;3.13;;;;;;;11.33;47.04;99564.06;5073403;28;20630;-70
2021/04/28 09:30:01;;;;;;;3.43;3.10;;;;;;;11.61;46.53;99557.97;5073447;28;20265;-69
2021/04/28 09:32:31;;;;;;;3.73;3.43;;;;;;;11.76;45.02;99560.03;5073057;28;20182;-70
2021/04/28 09:35:14;;;;;;;3.40;3.10;;;;;;;11.93;45.63;99556.31;5073061;28;20174;-69
2021/04/28 09:37:49;;;;;;;3.30;3.10;;;;;;;11.85;45.92;99558.00;5071810;28;20232;-69
2021/04/28 09:40:14;;;;;;;3.13;2.93;;;;;;;11.94;45.71;99557.13;5073239;28;20180;-70
2021/04/28 09:42:51;;;;;;;3.03;2.80;;;;;;;12.18;45.51;99566.13;5072853;28;20206;-70
2021/04/28 09:45:40;;;;;;;3.83;3.10;;;;;;;12.04;43.61;99556.66;5072951;28;20225;-69
2021/04/28 09:48:08;;;;;;;3.10;2.80;;;;;;;12.31;44.79;99547.75;5073014;28;20579;-71
2021/04/28 09:50:34;;;;;;;4.40;4.00;;;;;;;12.19;44.29;99550.50;5071942;28;20569;-70
2021/04/28 09:53:00;;;;;;;3.40;3.20;;;;;;;12.51;46.53;99545.97;5072607;28;20175;-71
2021/04/28 09:55:25;;;;;;;3.23;3.03;;;;;;;12.65;42.93;99540.13;5071581;28;20175;-71
2021/04/28 09:57:52;;;;;;;3.73;3.43;;;;;;;12.18;43.14;99546.97;5072672;28;20223;-69
2021/04/28 10:00:27;;;;;;;3.20;2.93;;;;;;;12.60;45.27;99540.38;5072748;28;20166;-70
2021/04/28 10:02:57;;;;;;;4.20;3.90;;;;;;;12.68;42.68;99542.16;5071157;28;20205;-71
2021/04/28 10:05:33;;;;;;;3.00;2.80;;;;;;;12.81;43.59;99541.78;5072780;28;20194;-69
2021/04/28 10:08:16;;;;;;;3.50;2.73;;;;;;;12.47;43.06;99531.38;5072644;28;20254;-70
2021/04/28 10:11:00;;;;;;;3.87;3.57;;;;;;;12.59;43.22;99534.09;5072446;28;20182;-69
2021/04/28 10:13:26;;;;;;;2.87;2.67;;;;;;;12.84;43.24;99532.06;5072308;28;20630;-74
2021/04/28 10:15:58;;;;;;;3.67;3.40;;;;;;;13.03;43.40;99531.41;5072564;28;20174;-71
2021/04/28 10:18:25;;;;;;;4.60;4.20;;;;;;;13.03;41.42;99526.72;5072817;28;20185;-73
2021/04/28 10:20:51;;;;;;;3.17;2.90;;;;;;;13.13;43.69;99530.09;5072848;28;20181;-73
2021/04/28 10:23:19;;;;;;;4.07;3.77;;;;;;;13.31;42.66;99524.00;5072613;28;20171;-71
2021/04/28 10:25:49;;;;;;;3.43;3.13;;;;;;;13.47;42.06;99524.00;5072219;28;20176;-72
2021/04/28 10:28:15;;;;;;;3.90;3.60;;;;;;;13.36;42.58;99514.69;5072182;28;20170;-73
2021/04/28 10:30:43;;;;;;;4.03;3.63;;;;;;;13.51;41.84;99521.34;5069122;28;20278;-71
2021/04/28 10:33:21;;;;;;;4.00;3.70;;;;;;;13.63;40.84;99510.28;5070463;28;20183;-72
2021/04/28 10:35:47;;;;;;;3.60;3.40;;;;;;;13.54;42.11;99507.69;5068561;28;20664;-73
2021/04/28 10:38:20;;;;;;;4.23;3.83;;;;;;;13.38;41.38;99506.91;5072375;28;20174;-73
2021/04/28 10:40:45;;;;;;;3.17;2.97;;;;;;;13.78;42.70;99503.19;5072339;28;20170;-72
2021/04/28 10:43:10;;;;;;;3.50;3.20;;;;;;;13.98;41.44;99508.38;5072204;28;20661;-72
2021/04/28 10:45:38;;;;;;;4.13;3.83;;;;;;;13.85;41.20;99503.34;5072371;28;20170;-71
2021/04/28 10:48:11;;;;;;;3.53;3.23;;;;;;;13.97;42.97;99501.28;5072292;28;20178;-71
2021/04/28 10:50:40;;;;;;;4.07;3.30;;;;;;;14.11;41.28;99497.28;5072195;28;20643;-71
2021/04/28 10:53:28;;;;;;;3.37;3.00;;;;;;;14.22;41.22;99490.88;5072076;28;20210;-75
2021/04/28 10:56:13;;;;;;;3.27;3.07;;;;;;;14.82;43.02;99494.09;5072328;28;20223;-72
2021/04/28 10:58:41;;;;;;;3.53;3.23;;;;;;;15.24;41.61;99487.81;5070757;28;20253;-73
2021/04/28 11:01:07;;;;;;;3.70;3.40;;;;;;;15.32;39.83;99489.53;5071948;28;20668;-75
2021/04/28 11:03:41;;;;;;;4.80;4.13;;;;;;;14.61;38.83;99479.94;5071936;28;20170;-74
2021/04/28 11:06:28;;;;;;;4.00;3.70;;;;;;;14.37;40.14;99475.50;5071684;28;20180;-73
2021/04/28 11:08:53;;;;;;;4.23;3.93;;;;;;;14.58;40.36;99464.94;5071968;28;20173;-72
2021/04/28 11:11:31;;;;;;;3.93;3.60;;;;;;;15.13;40.27;99465.63;5071799;28;20530;-75
2021/04/28 11:14:15;;;;;;;3.37;2.83;;;;;;;15.36;41.54;99473.88;5069931;28;20182;-73
2021/04/28 11:16:43;;;;;;;5.07;4.57;;;;;;;14.98;38.34;99463.75;5070176;28;20220;-72
2021/04/28 11:19:14;;;;;;;4.80;4.37;;;;;;;14.99;39.17;99459.06;5071561;28;20175;-72
2021/04/28 11:21:40;;;;;;;5.00;4.60;;;;;;;15.09;38.69;99459.25;5071601;28;20267;-70
2021/04/28 11:24:10;;;;;;;4.57;4.17;;;;;;;15.41;41.02;99450.75;5072208;28;20178;-71
2021/04/28 11:26:52;;;;;;;4.70;4.30;;;;;;;15.42;39.11;99458.66;5073331;28;20174;-70
2021/04/28 11:29:18;;;;;;;4.70;4.30;;;;;;;15.68;41.99;99449.66;5071836;28;20174;-71
2021/04/28 11:31:50;;;;;;;4.57;3.97;;;;;;;15.62;39.40;99445.66;5071380;28;20185;-70
2021/04/28 11:34:24;;;;;;;3.87;3.57;;;;;;;15.90;38.77;99442.50;5071258;28;20662;-71
2021/04/28 11:36:53;;;;;;;3.30;3.10;;;;;;;16.27;40.08;99434.34;5068540;28;20736;-71
2021/04/28 11:39:36;;;;;;;4.60;4.30;;;;;;;15.70;37.28;99433.56;5071248;28;20186;-70
2021/04/28 11:42:20;;;;;;;4.27;3.97;;;;;;;15.67;38.11;99425.25;5063416;28;20615;-70
2021/04/28 11:44:50;;;;;;;3.47;3.17;;;;;;;15.92;37.87;99420.91;5069789;28;20515;-70